Time;durP1;ratioP1;P1;durP2;ratioP2;P2;SDS_P1;SDS_P2;PMS_P1;PMS_P2;Temp;Humidity;BMP_temperature;BMP_pressure;BME280_temperature;BME280_humidity;BME280_pressure;Samples;Min_cycle;Max_cycle;Signal;HPM_P1;HPM_P2
2023/01/25 00:01:21;;;;;;;16.83;7.95;;;3.20;99.90;;;;;;5075837;28;20016;-69
2023/01/25 00:03:47;;;;;;;19.05;7.72;;;3.10;99.90;;;;;;5073543;28;20345;-69
2023/01/25 00:06:12;;;;;;;15.80;7.03;;;3.10;99.90;;;;;;5072795;28;20503;-69
2023/01/25 00:08:38;;;;;;;17.17;6.90;;;3.10;99.90;;;;;;5073800;28;20035;-69
2023/01/25 00:11:04;;;;;;;14.68;7.03;;;3.00;99.90;;;;;;5074031;28;20040;-69
2023/01/25 00:13:29;;;;;;;20.63;7.43;;;2.90;99.90;;;;;;5073198;28;20024;-69
2023/01/25 00:16:02;;;;;;;16.90;7.32;;;2.80;99.90;;;;;;5073944;28;20024;-69
2023/01/25 00:18:28;;;;;;;17.83;7.28;;;2.80;99.90;;;;;;5073697;28;20032;-69
2023/01/25 00:20:54;;;;;;;15.95;6.88;;;2.80;99.90;;;;;;5072393;28;20024;-70
2023/01/25 00:23:19;;;;;;;15.77;7.43;;;2.60;99.90;;;;;;5072598;28;20024;-70
2023/01/25 00:25:45;;;;;;;18.95;7.80;;;2.50;99.90;;;;;;5072546;28;20028;-70
2023/01/25 00:28:10;;;;;;;17.30;7.68;;;2.50;99.90;;;;;;5072837;28;20123;-70
2023/01/25 00:31:13;;;;;;;18.10;8.13;;;2.60;99.90;;;;;;5073455;28;20035;-70
2023/01/25 00:34:01;;;;;;;18.83;7.28;;;2.70;99.90;;;;;;5072195;28;20024;-70
2023/01/25 00:36:36;;;;;;;20.63;8.60;;;2.80;99.90;;;;;;5072069;28;20027;-69
2023/01/25 00:39:02;;;;;;;19.60;7.93;;;2.90;99.90;;;;;;5072008;28;20107;-70
2023/01/25 00:41:27;;;;;;;20.13;8.30;;;3.00;99.90;;;;;;5073361;28;20103;-69
2023/01/25 00:43:53;;;;;;;16.38;7.93;;;2.90;99.90;;;;;;5072948;28;20475;-69
2023/01/25 00:46:19;;;;;;;17.85;8.10;;;2.80;99.90;;;;;;5073217;28;20105;-69
2023/01/25 00:48:44;;;;;;;21.52;8.43;;;2.80;99.90;;;;;;5073176;28;20032;-70
2023/01/25 00:51:10;;;;;;;18.15;7.82;;;2.80;99.90;;;;;;5073244;28;20029;-70
2023/01/25 00:53:36;;;;;;;17.83;8.05;;;2.90;99.90;;;;;;5072733;28;20020;-70
2023/01/25 00:56:02;;;;;;;20.08;8.02;;;2.80;99.90;;;;;;5073395;28;20060;-70
2023/01/25 00:58:27;;;;;;;18.00;7.93;;;2.90;99.90;;;;;;5073445;28;20025;-70
2023/01/25 01:00:54;;;;;;;19.17;8.18;;;3.00;99.90;;;;;;5071680;28;20033;-70
2023/01/25 01:03:20;;;;;;;18.70;8.18;;;2.90;99.90;;;;;;5073117;28;20025;-69
2023/01/25 01:05:45;;;;;;;15.48;7.88;;;2.90;99.90;;;;;;5055948;28;20029;-69
2023/01/25 01:08:23;;;;;;;18.38;7.05;;;2.90;99.90;;;;;;5052651;28;20035;-70
2023/01/25 01:10:49;;;;;;;20.05;8.23;;;2.80;99.90;;;;;;5053531;28;20037;-69
2023/01/25 01:13:14;;;;;;;20.17;8.40;;;2.80;99.90;;;;;;5052196;28;20035;-69
2023/01/25 01:22:24;;;;;;;18.55;6.97;;;2.60;99.90;;;;;;5053059;28;20503;-69
2023/01/25 01:24:50;;;;;;;20.88;8.27;;;2.50;99.90;;;;;;5051548;28;20025;-69
2023/01/25 01:27:15;;;;;;;20.38;7.70;;;2.40;99.90;;;;;;5051596;28;20438;-69
2023/01/25 01:29:57;;;;;;;22.25;9.02;;;2.40;99.90;;;;;;5051974;28;20036;-69
2023/01/25 01:32:23;;;;;;;18.17;7.20;;;2.30;99.90;;;;;;5051486;28;20029;-69
2023/01/25 01:34:48;;;;;;;17.75;8.20;;;2.20;99.90;;;;;;5051421;28;20127;-69
2023/01/25 01:37:14;;;;;;;21.60;8.70;;;2.20;99.90;;;;;;5052609;28;20025;-69
2023/01/25 01:39:39;;;;;;;20.98;7.60;;;2.20;99.90;;;;;;5052224;28;20028;-70
2023/01/25 01:42:05;;;;;;;17.42;7.45;;;2.40;99.90;;;;;;5052691;28;20507;-70
2023/01/25 01:44:46;;;;;;;20.00;8.52;;;2.40;99.90;;;;;;5051723;28;20021;-70
2023/01/25 01:47:26;;;;;;;20.80;7.88;;;2.50;99.90;;;;;;5052654;28;20059;-70
2023/01/25 01:50:04;;;;;;;19.55;8.77;;;2.60;99.90;;;;;;5052534;28;20056;-70
2023/01/25 01:52:34;;;;;;;17.42;8.15;;;2.80;99.90;;;;;;5051386;28;20025;-69
2023/01/25 01:55:12;;;;;;;24.60;8.20;;;2.80;99.90;;;;;;5051616;28;20029;-69
2023/01/25 01:57:42;;;;;;;21.50;8.43;;;2.70;99.90;;;;;;5054534;28;20108;-70
2023/01/25 02:00:14;;;;;;;18.38;8.18;;;2.70;99.90;;;;;;5056132;28;20036;-70
2023/01/25 02:02:40;;;;;;;21.80;7.60;;;2.80;99.90;;;;;;5054779;28;20075;-70
2023/01/25 02:05:11;;;;;;;21.05;8.82;;;2.80;99.90;;;;;;5055147;28;20045;-70
2023/01/25 02:07:38;;;;;;;20.85;9.55;;;2.70;99.90;;;;;;5056036;28;20021;-70
2023/01/25 02:10:06;;;;;;;23.15;8.85;;;2.70;99.90;;;;;;5054589;28;20033;-69
2023/01/25 02:12:32;;;;;;;20.42;9.05;;;2.70;99.90;;;;;;5056376;28;20029;-69
2023/01/25 02:14:57;;;;;;;19.70;8.93;;;2.60;99.90;;;;;;5055296;28;20082;-70
2023/01/25 02:17:32;;;;;;;22.73;8.77;;;2.70;99.90;;;;;;5056099;28;20029;-70
2023/01/25 02:20:04;;;;;;;26.67;8.07;;;2.60;99.90;;;;;;5055690;28;20506;-70
2023/01/25 02:22:38;;;;;;;16.10;8.23;;;2.70;99.90;;;;;;5055689;28;20021;-70
2023/01/25 02:25:08;;;;;;;24.48;9.15;;;2.80;99.90;;;;;;5054464;28;20033;-70
2023/01/25 02:27:38;;;;;;;21.33;8.50;;;2.70;99.90;;;;;;5055938;28;20029;-70
2023/01/25 02:30:05;;;;;;;21.48;8.43;;;2.70;99.90;;;;;;5055820;28;20021;-70
2023/01/25 02:32:31;;;;;;;21.88;9.10;;;2.50;99.90;;;;;;5055564;28;20028;-69
2023/01/25 02:34:57;;;;;;;23.63;8.88;;;2.40;99.90;;;;;;5054373;28;20112;-69
2023/01/25 02:37:22;;;;;;;23.63;9.85;;;2.30;99.90;;;;;;5055424;28;20543;-69
2023/01/25 02:39:48;;;;;;;18.75;8.27;;;2.50;99.90;;;;;;5055316;28;20036;-69
2023/01/25 02:42:14;;;;;;;19.23;7.90;;;2.70;99.90;;;;;;5055337;28;20024;-70
2023/01/25 02:44:41;;;;;;;19.63;8.38;;;3.00;99.90;;;;;;5054374;28;20476;-70
2023/01/25 02:47:06;;;;;;;21.98;7.68;;;3.10;99.90;;;;;;5054018;28;20032;-70
2023/01/25 02:49:35;;;;;;;20.73;8.60;;;3.00;99.90;;;;;;5053839;28;20032;-70
2023/01/25 02:52:01;;;;;;;20.15;8.05;;;3.20;99.90;;;;;;5053968;28;20025;-70
2023/01/25 02:54:26;;;;;;;21.02;8.00;;;3.20;99.90;;;;;;5055364;28;20036;-70
2023/01/25 02:56:52;;;;;;;18.33;8.02;;;3.20;99.90;;;;;;5055371;28;20021;-70
2023/01/25 02:59:18;;;;;;;17.23;7.60;;;3.20;99.90;;;;;;5054933;28;20017;-70
2023/01/25 03:01:44;;;;;;;16.35;7.25;;;2.80;99.90;;;;;;5053745;28;20032;-70
2023/01/25 03:04:10;;;;;;;16.42;7.57;;;3.00;99.90;;;;;;5054827;28;20025;-70
2023/01/25 03:06:37;;;;;;;17.15;7.70;;;2.70;99.90;;;;;;5054875;28;20139;-70
2023/01/25 03:09:03;;;;;;;19.70;6.82;;;2.60;99.90;;;;;;5053504;28;20035;-70
2023/01/25 03:11:29;;;;;;;18.83;6.93;;;2.70;99.90;;;;;;5053535;28;20104;-70
2023/01/25 03:13:54;;;;;;;17.67;6.90;;;2.80;99.90;;;;;;5054545;28;20143;-70
2023/01/25 03:16:20;;;;;;;16.33;7.65;;;2.50;99.90;;;;;;5054667;28;20024;-69
2023/01/25 03:18:45;;;;;;;18.77;7.28;;;2.50;99.90;;;;;;5053466;28;20029;-70
2023/01/25 03:21:20;;;;;;;20.60;7.43;;;2.70;99.90;;;;;;5053857;28;20017;-70
2023/01/25 03:23:46;;;;;;;24.08;8.68;;;2.90;99.90;;;;;;5055208;28;20036;-70
2023/01/25 03:26:20;;;;;;;19.33;7.55;;;3.00;99.90;;;;;;5054840;28;20067;-70
2023/01/25 03:28:46;;;;;;;21.80;8.18;;;3.10;99.90;;;;;;5053266;28;20071;-69
2023/01/25 03:31:13;;;;;;;17.30;7.63;;;3.10;99.90;;;;;;5054751;28;20060;-70
2023/01/25 03:33:40;;;;;;;21.00;8.40;;;3.10;99.90;;;;;;5053445;28;20048;-70
2023/01/25 03:36:05;;;;;;;25.17;9.25;;;3.00;99.90;;;;;;5053103;28;20111;-69
2023/01/25 03:38:32;;;;;;;20.15;8.52;;;2.90;99.90;;;;;;5054268;28;20101;-70
2023/01/25 03:40:57;;;;;;;23.13;9.52;;;3.00;99.90;;;;;;5053079;28;20043;-70
2023/01/25 03:43:23;;;;;;;17.05;6.90;;;3.00;99.90;;;;;;5054148;28;20033;-70
2023/01/25 03:46:00;;;;;;;17.65;7.60;;;2.90;99.90;;;;;;5054382;28;20029;-70
2023/01/25 03:48:26;;;;;;;22.45;8.82;;;3.00;99.90;;;;;;5052858;28;20031;-70
2023/01/25 03:50:57;;;;;;;18.80;8.32;;;3.00;99.90;;;;;;5052617;28;20078;-70
2023/01/25 03:53:28;;;;;;;21.13;8.25;;;3.00;99.90;;;;;;5053544;28;20112;-70
2023/01/25 03:55:59;;;;;;;18.00;7.68;;;2.80;99.90;;;;;;5053909;28;20036;-70
2023/01/25 03:58:26;;;;;;;21.40;8.88;;;2.80;99.90;;;;;;5053197;28;20071;-70
2023/01/25 04:00:54;;;;;;;22.30;8.02;;;2.70;99.90;;;;;;5054098;28;20033;-70
2023/01/25 04:03:20;;;;;;;19.42;7.30;;;2.80;99.90;;;;;;5054018;28;20059;-70
2023/01/25 04:05:46;;;;;;;21.20;7.75;;;2.80;99.90;;;;;;5052674;28;20056;-70
2023/01/25 04:08:12;;;;;;;18.30;7.60;;;2.80;99.90;;;;;;5053737;28;20025;-70
2023/01/25 04:10:38;;;;;;;25.33;7.70;;;2.80;99.90;;;;;;5053405;28;20033;-70
2023/01/25 04:13:03;;;;;;;21.13;8.98;;;2.70;99.90;;;;;;5053054;28;20040;-69
2023/01/25 04:15:29;;;;;;;16.73;7.75;;;2.60;99.90;;;;;;5053578;28;20020;-70
2023/01/25 04:18:33;;;;;;;21.48;8.13;;;2.60;99.90;;;;;;5053116;28;20043;-70
2023/01/25 04:20:59;;;;;;;16.73;6.78;;;2.50;99.90;;;;;;5052199;28;20025;-70
2023/01/25 04:23:25;;;;;;;17.30;7.40;;;2.40;99.90;;;;;;5053513;28;20104;-69
2023/01/25 04:25:59;;;;;;;14.98;6.88;;;2.40;99.90;;;;;;5052224;28;20047;-69
2023/01/25 04:28:26;;;;;;;21.75;7.60;;;2.30;99.90;;;;;;5052065;28;20032;-70
2023/01/25 04:30:53;;;;;;;17.77;7.53;;;2.30;99.90;;;;;;5052384;28;20028;-69
2023/01/25 04:33:19;;;;;;;22.52;7.03;;;2.40;99.90;;;;;;5053547;28;20029;-70
2023/01/25 04:35:45;;;;;;;21.17;7.90;;;2.50;99.90;;;;;;5052633;28;20524;-70
2023/01/25 04:38:11;;;;;;;19.05;8.32;;;2.40;99.90;;;;;;5052028;28;20048;-70
2023/01/25 04:40:37;;;;;;;21.15;8.30;;;2.30;99.90;;;;;;5051991;28;20033;-70
2023/01/25 04:43:03;;;;;;;22.63;9.57;;;2.30;99.90;;;;;;5052237;28;20523;-70
2023/01/25 04:45:28;;;;;;;22.45;7.82;;;2.30;99.90;;;;;;5053463;28;20021;-70
2023/01/25 04:48:02;;;;;;;22.73;7.80;;;2.20;99.90;;;;;;5051964;28;20025;-70
2023/01/25 04:50:28;;;;;;;21.92;7.20;;;2.10;99.90;;;;;;5052801;28;20025;-70
2023/01/25 04:52:54;;;;;;;18.73;8.05;;;2.30;99.90;;;;;;5052138;28;20086;-70
2023/01/25 04:55:20;;;;;;;18.83;8.00;;;2.50;99.90;;;;;;5051914;28;20025;-70
2023/01/25 04:57:49;;;;;;;16.48;6.90;;;2.50;99.90;;;;;;5052710;28;20033;-70
2023/01/25 05:00:16;;;;;;;22.77;8.20;;;2.60;99.90;;;;;;5052973;28;20025;-70
2023/01/25 05:02:42;;;;;;;19.70;7.90;;;2.60;99.90;;;;;;5052996;28;20028;-70
2023/01/25 05:05:08;;;;;;;21.90;8.35;;;2.60;99.90;;;;;;5053023;28;20033;-70
2023/01/25 05:07:33;;;;;;;21.33;7.53;;;2.60;99.90;;;;;;5051672;28;20099;-70
2023/01/25 05:09:59;;;;;;;19.48;8.23;;;2.60;99.90;;;;;;5053016;28;20396;-70
2023/01/25 05:12:24;;;;;;;23.42;8.85;;;2.60;99.90;;;;;;5051649;28;20088;-70
2023/01/25 05:14:50;;;;;;;20.10;8.38;;;2.60;99.90;;;;;;5051526;28;20023;-70
2023/01/25 05:17:15;;;;;;;26.42;9.48;;;2.50;99.90;;;;;;5051724;28;20120;-70
2023/01/25 05:19:41;;;;;;;22.13;8.75;;;2.50;99.90;;;;;;5052962;28;20021;-69
2023/01/25 05:22:10;;;;;;;19.73;7.50;;;2.30;99.90;;;;;;5052815;28;20071;-70
2023/01/25 05:24:36;;;;;;;21.27;7.18;;;2.30;99.90;;;;;;5052841;28;20025;-70
2023/01/25 05:27:02;;;;;;;25.20;8.07;;;2.40;99.90;;;;;;5051606;28;20055;-70
2023/01/25 05:29:34;;;;;;;20.10;7.82;;;2.30;99.90;;;;;;5052316;28;20024;-70
2023/01/25 05:32:02;;;;;;;21.08;7.47;;;2.10;99.90;;;;;;5053640;28;20028;-70
2023/01/25 05:34:27;;;;;;;22.33;7.88;;;2.10;99.90;;;;;;5056570;28;20051;-70
2023/01/25 05:36:53;;;;;;;17.42;7.90;;;2.20;99.90;;;;;;5056633;28;20029;-70
2023/01/25 05:39:19;;;;;;;17.80;7.57;;;2.30;99.90;;;;;;5055099;28;20115;-70
2023/01/25 05:41:44;;;;;;;20.25;7.95;;;2.40;99.90;;;;;;5056516;28;20025;-70
2023/01/25 05:44:10;;;;;;;20.25;7.20;;;2.30;99.90;;;;;;5056389;28;20064;-70
2023/01/25 05:46:35;;;;;;;22.33;7.55;;;2.10;99.90;;;;;;5055087;28;20025;-70
2023/01/25 05:49:01;;;;;;;18.77;6.72;;;2.20;99.90;;;;;;5054971;28;20036;-70
2023/01/25 05:51:26;;;;;;;16.98;7.32;;;2.10;99.90;;;;;;5056306;28;20024;-70
2023/01/25 05:53:55;;;;;;;21.05;8.13;;;2.10;99.90;;;;;;5055008;28;20116;-70
2023/01/25 05:56:21;;;;;;;25.98;10.27;;;2.10;99.90;;;;;;5055875;28;20033;-70
2023/01/25 05:58:50;;;;;;;26.02;8.82;;;2.10;99.90;;;;;;5054872;28;20029;-69
2023/01/25 06:01:16;;;;;;;20.35;8.32;;;2.20;99.90;;;;;;5056148;28;20017;-70
2023/01/25 06:03:41;;;;;;;19.73;7.50;;;2.10;99.90;;;;;;5056042;28;20032;-70
2023/01/25 06:06:07;;;;;;;18.90;6.90;;;2.20;99.90;;;;;;5056109;28;20032;-70
2023/01/25 06:08:32;;;;;;;18.27;7.32;;;2.10;99.90;;;;;;5054688;28;20067;-69
2023/01/25 06:10:58;;;;;;;22.42;8.10;;;2.10;99.90;;;;;;5055067;28;20036;-70
2023/01/25 06:13:24;;;;;;;23.33;8.75;;;2.20;99.90;;;;;;5055020;28;20078;-70
2023/01/25 06:15:54;;;;;;;20.10;7.93;;;2.30;99.90;;;;;;5055872;28;20021;-70
2023/01/25 06:18:20;;;;;;;22.35;8.07;;;2.50;99.90;;;;;;5055806;28;20044;-70
2023/01/25 06:20:46;;;;;;;19.85;7.75;;;2.50;99.90;;;;;;5055995;28;20071;-70
2023/01/25 06:23:12;;;;;;;21.85;7.97;;;2.60;99.90;;;;;;5056053;28;20033;-70
2023/01/25 06:25:38;;;;;;;23.98;8.57;;;2.60;99.90;;;;;;5054450;28;20028;-70
2023/01/25 06:28:04;;;;;;;17.45;7.38;;;2.80;99.90;;;;;;5055591;28;20032;-70
2023/01/25 06:30:29;;;;;;;17.70;6.78;;;2.60;99.90;;;;;;5055477;28;20047;-70
2023/01/25 06:32:57;;;;;;;20.95;7.55;;;2.50;99.90;;;;;;5054219;28;20025;-70
2023/01/25 06:35:23;;;;;;;22.67;9.30;;;2.60;99.90;;;;;;5054168;28;20070;-70
2023/01/25 06:37:48;;;;;;;17.42;6.82;;;2.70;99.90;;;;;;5055391;28;20096;-70
2023/01/25 06:40:14;;;;;;;20.70;8.93;;;2.40;99.90;;;;;;5054472;28;20025;-70
2023/01/25 06:42:39;;;;;;;20.95;8.88;;;2.30;99.90;;;;;;5054685;28;20064;-70
2023/01/25 06:45:06;;;;;;;20.67;7.47;;;2.40;99.90;;;;;;5054364;28;20024;-70
2023/01/25 06:47:31;;;;;;;21.13;8.68;;;2.40;99.90;;;;;;5055369;28;20380;-69
2023/01/25 06:49:57;;;;;;;20.42;8.55;;;2.50;99.90;;;;;;5054473;28;20027;-69
2023/01/25 06:52:22;;;;;;;18.35;7.47;;;2.20;99.90;;;;;;5055166;28;20064;-70
2023/01/25 06:54:48;;;;;;;18.73;6.90;;;2.10;99.90;;;;;;5053801;28;20053;-70
2023/01/25 06:57:13;;;;;;;16.05;6.55;;;2.10;99.90;;;;;;5053796;28;20029;-70
2023/01/25 06:59:39;;;;;;;19.92;7.10;;;2.00;99.90;;;;;;5054892;28;20053;-70
2023/01/25 07:02:05;;;;;;;22.83;7.07;;;2.00;99.90;;;;;;5054930;28;20025;-70
2023/01/25 07:04:30;;;;;;;26.02;8.05;;;2.00;99.90;;;;;;5054857;28;20032;-70
2023/01/25 07:06:56;;;;;;;20.15;6.93;;;1.90;99.90;;;;;;5053633;28;20064;-70
2023/01/25 07:09:23;;;;;;;18.67;7.72;;;1.70;99.90;;;;;;5053335;28;20033;-70
2023/01/25 07:11:49;;;;;;;17.85;7.18;;;1.60;99.90;;;;;;5055151;28;20025;-70
2023/01/25 07:14:15;;;;;;;23.15;8.20;;;1.60;99.90;;;;;;5054742;28;20033;-70
2023/01/25 07:16:41;;;;;;;19.02;6.63;;;1.80;99.90;;;;;;5053359;28;20500;-70
2023/01/25 07:19:08;;;;;;;19.30;7.85;;;1.80;99.90;;;;;;5054563;28;20155;-70
2023/01/25 07:21:34;;;;;;;21.98;7.32;;;1.80;99.90;;;;;;5053599;28;20021;-70
2023/01/25 07:24:03;;;;;;;18.70;6.75;;;1.90;99.90;;;;;;5054561;28;20028;-70
2023/01/25 07:26:29;;;;;;;21.70;6.82;;;1.80;99.90;;;;;;5053209;28;20032;-70
2023/01/25 07:28:57;;;;;;;14.93;6.43;;;1.80;99.90;;;;;;5053934;28;20143;-70
2023/01/25 07:31:23;;;;;;;21.23;7.30;;;1.70;99.90;;;;;;5053112;28;20075;-70
2023/01/25 07:33:53;;;;;;;18.30;7.35;;;1.80;99.90;;;;;;5054512;28;20029;-70
2023/01/25 07:36:21;;;;;;;18.77;7.40;;;2.00;99.90;;;;;;5055329;28;20055;-70
2023/01/25 07:38:47;;;;;;;19.42;7.70;;;2.00;99.90;;;;;;5054611;28;20031;-70
2023/01/25 07:41:13;;;;;;;26.23;7.45;;;1.90;99.90;;;;;;5052948;28;20108;-70
2023/01/25 07:43:39;;;;;;;20.40;6.88;;;1.80;99.90;;;;;;5054078;28;20029;-70
2023/01/25 07:46:07;;;;;;;16.58;6.65;;;1.80;99.90;;;;;;5052990;28;20025;-70
2023/01/25 07:48:32;;;;;;;15.88;6.18;;;1.80;99.90;;;;;;5052811;28;20025;-70
2023/01/25 07:51:21;;;;;;;18.50;7.00;;;1.80;99.90;;;;;;5054066;28;20094;-70
2023/01/25 07:53:57;;;;;;;14.75;5.97;;;1.80;99.90;;;;;;5052411;28;20021;-70
2023/01/25 07:56:26;;;;;;;17.13;6.40;;;2.00;99.90;;;;;;5053061;28;20036;-70
2023/01/25 07:58:53;;;;;;;16.00;6.38;;;2.10;99.90;;;;;;5053761;28;20021;-70
2023/01/25 08:01:21;;;;;;;14.63;6.57;;;2.00;99.90;;;;;;5054190;28;20020;-70
2023/01/25 08:03:48;;;;;;;17.60;6.68;;;2.00;99.90;;;;;;5052912;28;20021;-69
2023/01/25 08:06:14;;;;;;;12.60;5.35;;;2.20;99.90;;;;;;5053775;28;20029;-70
2023/01/25 08:08:46;;;;;;;15.85;5.82;;;2.30;99.90;;;;;;5052551;28;20082;-70
2023/01/25 08:11:15;;;;;;;15.15;6.95;;;2.40;99.90;;;;;;5070789;23;20029;-67
2023/01/25 08:13:45;;;;;;;17.48;6.78;;;2.30;99.90;;;;;;5032802;28;20091;-68
2023/01/25 08:16:14;;;;;;;21.08;7.88;;;2.10;99.90;;;;;;5033831;28;20014;-68
2023/01/25 08:18:40;;;;;;;21.83;7.20;;;2.10;99.90;;;;;;5033742;28;20022;-68
2023/01/25 08:21:05;;;;;;;19.63;7.13;;;2.20;99.90;;;;;;5033766;28;20052;-66
2023/01/25 08:23:31;;;;;;;20.02;6.97;;;2.20;99.90;;;;;;5032910;28;20044;-66
2023/01/25 08:26:08;;;;;;;20.83;7.93;;;2.40;99.90;;;;;;5034196;28;20025;-67
2023/01/25 08:28:34;;;;;;;20.85;7.32;;;2.50;99.90;;;;;;5032412;28;20480;-67
2023/01/25 08:34:21;;;;;;;24.83;7.47;;;2.10;99.90;;;;;;5033754;28;20032;-68
2023/01/25 08:36:48;;;;;;;15.85;6.63;;;2.10;99.90;;;;;;5033723;28;20029;-69
2023/01/25 08:39:14;;;;;;;16.92;6.32;;;2.10;99.90;;;;;;5033538;28;20017;-69
2023/01/25 08:41:41;;;;;;;20.45;7.53;;;2.20;99.90;;;;;;5032038;28;20032;-68
2023/01/25 08:44:06;;;;;;;18.42;7.03;;;2.20;99.90;;;;;;5033606;28;20040;-68
2023/01/25 08:46:33;;;;;;;16.83;6.85;;;2.20;99.90;;;;;;5033290;28;20033;-68
2023/01/25 08:49:00;;;;;;;19.83;7.20;;;2.00;99.90;;;;;;5032077;28;20022;-68
2023/01/25 08:51:26;;;;;;;21.50;7.35;;;2.10;99.90;;;;;;5032002;28;20064;-69
2023/01/25 08:53:52;;;;;;;16.38;6.03;;;2.10;99.90;;;;;;5031995;28;20025;-68
2023/01/25 08:56:18;;;;;;;17.10;6.93;;;2.10;99.90;;;;;;5032058;28;20125;-68
2023/01/25 08:58:46;;;;;;;17.23;6.32;;;2.00;99.90;;;;;;5032060;28;20025;-68
2023/01/25 09:01:13;;;;;;;19.52;6.35;;;1.80;99.90;;;;;;5032671;28;20084;-67
2023/01/25 09:03:45;;;;;;;16.65;6.50;;;1.80;99.90;;;;;;5033253;28;20097;-69
2023/01/25 09:06:11;;;;;;;13.77;6.78;;;1.80;99.90;;;;;;5035725;28;20074;-67
2023/01/25 09:08:37;;;;;;;14.15;6.20;;;1.80;99.90;;;;;;5037775;28;20519;-68
2023/01/25 09:11:08;;;;;;;17.05;7.10;;;1.60;99.90;;;;;;5036108;28;20030;-68
2023/01/25 09:13:33;;;;;;;16.90;5.93;;;1.60;99.90;;;;;;5037580;28;20032;-68
2023/01/25 09:16:04;;;;;;;18.08;6.25;;;1.70;99.90;;;;;;5035779;28;20025;-68
2023/01/25 09:18:31;;;;;;;15.70;5.97;;;1.70;99.90;;;;;;5036679;28;20103;-68
2023/01/25 09:20:57;;;;;;;17.58;6.13;;;1.80;99.90;;;;;;5035668;28;20256;-68
2023/01/25 09:23:23;;;;;;;13.63;5.88;;;2.10;99.90;;;;;;5037130;28;20032;-68
2023/01/25 09:25:57;;;;;;;15.80;6.32;;;2.30;99.90;;;;;;5035631;28;20103;-68
2023/01/25 09:28:22;;;;;;;18.40;7.25;;;2.50;99.90;;;;;;5035745;28;20033;-68
2023/01/25 09:31:00;;;;;;;13.13;5.53;;;2.60;99.90;;;;;;5035503;28;20056;-68
2023/01/25 09:33:27;;;;;;;14.70;6.40;;;2.80;99.90;;;;;;5034135;28;20112;-67
2023/01/25 09:35:52;;;;;;;13.05;5.57;;;2.80;99.90;;;;;;5035804;28;20034;-67
2023/01/25 09:38:18;;;;;;;15.75;6.30;;;2.90;99.90;;;;;;5035477;28;20025;-67
2023/01/25 09:41:00;;;;;;;18.23;7.05;;;2.90;99.90;;;;;;5036582;28;20091;-67
2023/01/25 09:43:49;;;;;;;15.13;6.60;;;2.90;99.90;;;;;;5035494;28;20033;-67
2023/01/25 09:46:47;;;;;;;17.30;5.97;;;2.90;99.90;;;;;;5035920;28;20022;-67
2023/01/25 09:49:26;;;;;;;16.63;6.70;;;2.80;99.90;;;;;;5035169;28;20025;-67
2023/01/25 09:52:06;;;;;;;16.50;7.35;;;2.80;99.90;;;;;;5035186;28;20029;-66
2023/01/25 09:54:40;;;;;;;14.38;6.78;;;2.70;99.90;;;;;;5036895;28;20030;-66
2023/01/25 09:57:20;;;;;;;16.20;6.80;;;2.50;99.90;;;;;;5035119;28;20025;-66
2023/01/25 09:59:48;;;;;;;19.90;7.00;;;2.50;99.90;;;;;;5035266;28;20025;-66
2023/01/25 10:02:29;;;;;;;14.80;6.00;;;2.50;99.90;;;;;;5034905;28;20088;-67
2023/01/25 10:05:01;;;;;;;17.73;5.47;;;2.60;99.90;;;;;;5035145;28;20029;-67
2023/01/25 10:07:46;;;;;;;14.38;5.80;;;2.50;99.90;;;;;;5035567;28;20033;-67
2023/01/25 10:10:27;;;;;;;16.58;6.30;;;2.50;99.90;;;;;;5034931;28;20040;-67
2023/01/25 10:12:52;;;;;;;15.00;6.43;;;2.40;99.90;;;;;;5036760;28;20033;-67
2023/01/25 10:15:21;;;;;;;16.23;6.72;;;2.20;99.90;;;;;;5034838;28;20032;-67
2023/01/25 10:17:58;;;;;;;13.88;5.97;;;2.20;99.90;;;;;;5035317;28;20030;-67
2023/01/25 10:20:42;;;;;;;19.02;6.07;;;2.20;99.90;;;;;;5035866;28;20057;-66
2023/01/25 10:23:27;;;;;;;14.95;5.57;;;2.20;99.90;;;;;;5035833;28;20394;-66
2023/01/25 10:26:01;;;;;;;17.33;6.47;;;2.10;99.90;;;;;;5035895;28;20093;-66
2023/01/25 10:28:45;;;;;;;19.23;5.82;;;2.20;99.90;;;;;;5035740;28;20029;-67
2023/01/25 10:31:16;;;;;;;16.73;5.70;;;2.20;99.90;;;;;;5035352;28;20017;-66
2023/01/25 10:33:44;;;;;;;16.35;5.82;;;2.30;99.90;;;;;;5034499;28;20488;-66
2023/01/25 10:36:16;;;;;;;11.40;5.53;;;2.40;99.90;;;;;;5036133;28;20030;-67
2023/01/25 10:38:45;;;;;;;12.57;5.55;;;2.30;99.90;;;;;;5034488;28;20420;-67
2023/01/25 10:41:25;;;;;;;13.55;6.07;;;2.30;99.90;;;;;;5036015;28;20030;-67
2023/01/25 10:44:20;;;;;;;19.27;5.93;;;2.20;99.90;;;;;;5035272;28;20030;-66
2023/01/25 10:46:40;;;;;;;13.80;5.25;;;2.00;99.90;;;;;;5035671;28;20029;-67
2023/01/25 10:49:22;;;;;;;14.10;6.03;;;2.00;99.90;;;;;;5036342;28;20026;-67
2023/01/25 10:51:48;;;;;;;12.65;5.25;;;2.10;99.90;;;;;;5036333;28;20039;-67
2023/01/25 10:54:14;;;;;;;17.05;6.10;;;2.00;99.90;;;;;;5034366;28;20029;-67
2023/01/25 10:56:42;;;;;;;15.63;6.18;;;1.90;99.90;;;;;;5034294;28;20017;-66
2023/01/25 10:59:23;;;;;;;14.60;5.80;;;1.70;99.90;;;;;;5035917;28;20022;-66
2023/01/25 11:01:49;;;;;;;15.52;6.35;;;1.70;99.90;;;;;;5035781;28;20021;-67
2023/01/25 11:04:34;;;;;;;15.00;6.30;;;1.90;99.90;;;;;;5035270;28;20032;-66
2023/01/25 11:07:01;;;;;;;23.63;7.72;;;2.00;99.90;;;;;;5035308;28;20026;-66
2023/01/25 11:09:38;;;;;;;20.38;7.45;;;1.90;99.90;;;;;;5035733;28;20033;-66
2023/01/25 11:12:16;;;;;;;16.42;6.50;;;1.90;99.90;;;;;;5034331;28;20044;-67
2023/01/25 11:14:41;;;;;;;15.02;6.22;;;2.10;99.90;;;;;;5035277;28;20025;-67
2023/01/25 11:17:28;;;;;;;15.40;5.72;;;2.20;99.90;;;;;;5034454;28;20117;-67
2023/01/25 11:20:23;;;;;;;15.85;6.45;;;2.00;99.90;;;;;;5034533;28;20023;-66
2023/01/25 11:22:52;;;;;;;18.83;5.93;;;1.80;99.90;;;;;;4974610;28;20214;-66
2023/01/25 11:25:25;;;;;;;16.30;5.32;;;1.60;99.90;;;;;;4962202;28;20130;-66
2023/01/25 11:27:58;;;;;;;15.10;6.22;;;1.60;99.90;;;;;;4974074;28;20042;-66
2023/01/25 11:30:24;;;;;;;11.95;5.55;;;1.60;99.90;;;;;;4957421;28;20031;-66
2023/01/25 11:32:50;;;;;;;16.42;6.05;;;1.60;99.90;;;;;;4957541;28;20038;-66
2023/01/25 11:35:24;;;;;;;17.88;5.90;;;1.60;99.90;;;;;;4957631;28;20070;-66
2023/01/25 11:38:05;;;;;;;16.70;5.95;;;1.50;99.90;;;;;;4957590;28;20027;-66
2023/01/25 11:40:43;;;;;;;14.63;6.05;;;1.50;99.90;;;;;;4957654;28;20034;-66
2023/01/25 11:43:33;;;;;;;15.88;6.50;;;1.70;99.90;;;;;;4957476;28;20050;-66
2023/01/25 11:46:19;;;;;;;15.38;5.68;;;1.80;99.90;;;;;;4957348;28;20062;-66
2023/01/25 11:49:06;;;;;;;15.52;5.63;;;2.00;99.90;;;;;;4973540;28;20105;-66
2023/01/25 11:51:42;;;;;;;21.75;6.57;;;2.10;99.90;;;;;;5071740;28;20371;-67
2023/01/25 11:54:44;;;;;;;15.07;6.68;;;2.00;99.90;;;;;;5069498;28;20037;-67
2023/01/25 11:57:23;;;;;;;;;;;2.10;99.90;;;;;;5071246;28;20017;-67
2023/01/25 11:59:53;;;;;;;16.38;6.07;;;2.20;99.90;;;;;;5069366;28;20386;-67
2023/01/25 12:02:54;;;;;;;20.20;7.75;;;2.20;99.90;;;;;;5093707;22;20028;-67
2023/01/25 12:05:43;;;;;;;16.27;6.40;;;2.10;99.90;;;;;;5010628;28;20034;-69
2023/01/25 12:08:41;;;;;;;13.85;6.05;;;2.20;99.90;;;;;;5009951;28;20022;-69
2023/01/25 12:11:23;;;;;;;15.27;5.57;;;2.50;99.90;;;;;;5010292;28;20034;-69
2023/01/25 12:13:54;;;;;;;;;;;2.70;99.90;;;;;;5010212;28;20030;-69
2023/01/25 12:16:34;;;;;;;14.27;5.63;;;2.60;99.90;;;;;;5011223;28;19906;-69
2023/01/25 12:19:13;;;;;;;17.52;6.45;;;2.50;99.90;;;;;;5010954;28;20253;-69
2023/01/25 12:22:10;;;;;;;16.95;6.38;;;2.30;99.90;;;;;;5009979;28;20129;-69
2023/01/25 12:25:01;;;;;;;16.92;6.70;;;2.00;99.90;;;;;;5009955;28;20072;-69
2023/01/25 12:27:59;;;;;;;15.32;6.55;;;2.00;99.90;;;;;;5010221;28;20030;-69
2023/01/25 12:30:39;;;;;;;15.30;6.13;;;2.00;99.90;;;;;;5010356;28;20027;-69
2023/01/25 12:33:14;;;;;;;16.48;6.13;;;2.20;99.90;;;;;;5010898;28;20041;-69
2023/01/25 12:36:16;;;;;;;16.30;6.47;;;2.40;99.90;;;;;;5009355;28;20026;-69
2023/01/25 12:38:47;;;;;;;16.63;6.13;;;2.60;99.90;;;;;;5009448;28;20050;-69
2023/01/25 12:41:25;;;;;;;18.20;6.80;;;2.50;99.90;;;;;;5010827;28;20026;-69
2023/01/25 12:43:57;;;;;;;16.73;6.63;;;2.40;99.90;;;;;;5008999;28;20052;-69
2023/01/25 12:46:29;;;;;;;16.85;6.65;;;2.50;99.90;;;;;;5010400;28;20026;-69
2023/01/25 12:49:00;;;;;;;17.73;5.97;;;2.60;99.90;;;;;;5010253;28;20076;-69
2023/01/25 12:51:32;;;;;;;19.55;7.13;;;2.50;99.90;;;;;;5009855;28;20037;-70
2023/01/25 12:54:01;;;;;;;17.42;6.88;;;2.50;99.90;;;;;;5010222;28;20018;-70
2023/01/25 12:56:43;;;;;;;20.67;7.88;;;2.70;99.90;;;;;;5008968;28;20026;-70
2023/01/25 12:59:28;;;;;;;17.92;6.78;;;2.60;99.90;;;;;;5010086;28;20022;-70
2023/01/25 13:02:02;;;;;;;19.63;7.25;;;2.50;99.90;;;;;;5001993;28;20026;-69
2023/01/25 13:04:51;;;;;;;18.73;7.75;;;2.20;99.90;;;;;;4995729;28;20030;-69
2023/01/25 13:07:27;;;;;;;21.73;7.53;;;1.90;99.90;;;;;;4996982;28;20018;-69
2023/01/25 13:10:03;;;;;;;16.52;6.85;;;1.90;99.90;;;;;;4996877;28;20050;-70
2023/01/25 13:12:48;;;;;;;19.10;6.63;;;2.20;99.90;;;;;;4997253;28;20038;-69
2023/01/25 13:15:43;;;;;;;15.50;6.07;;;2.30;99.90;;;;;;4995777;28;20030;-69